Time;durP1;ratioP1;P1;durP2;ratioP2;P2;SDS_P1;SDS_P2;PMS_P1;PMS_P2;Temp;Humidity;BMP_temperature;BMP_pressure;BME280_temperature;BME280_humidity;BME280_pressure;Samples;Min_cycle;Max_cycle;Signal;HPM_P1;HPM_P2
2020/12/11 00:02:02;;;;;;;63.67;24.40;;;3.00;99.90;;;;;;4977117;28;20050;-69
2020/12/11 00:04:29;;;;;;;67.00;25.33;;;3.00;99.90;;;;;;4994547;28;20109;-69
2020/12/11 00:06:57;;;;;;;67.47;24.33;;;3.00;99.90;;;;;;4997596;28;20050;-69
2020/12/11 00:09:24;;;;;;;72.47;24.40;;;3.10;99.90;;;;;;4998046;28;20046;-69
2020/12/11 00:11:51;;;;;;;64.30;24.67;;;3.00;99.90;;;;;;4994095;28;20050;-69
2020/12/11 00:14:18;;;;;;;62.00;23.97;;;2.90;99.90;;;;;;4992812;28;20050;-70
2020/12/11 00:16:45;;;;;;;67.17;24.97;;;2.90;99.90;;;;;;4992352;28;20046;-70
2020/12/11 00:19:11;;;;;;;63.93;24.40;;;2.90;99.90;;;;;;4991390;28;20055;-69
2020/12/11 00:21:39;;;;;;;62.50;23.60;;;2.80;99.90;;;;;;4992092;28;20113;-70
2020/12/11 00:24:05;;;;;;;66.33;23.47;;;2.90;99.90;;;;;;4991515;28;20511;-70
2020/12/11 00:26:33;;;;;;;70.10;25.07;;;2.80;99.90;;;;;;4992678;28;20046;-69
2020/12/11 00:29:00;;;;;;;70.27;24.37;;;2.70;99.90;;;;;;4992239;28;20062;-70
2020/12/11 00:31:27;;;;;;;63.53;23.97;;;2.80;99.90;;;;;;4991254;28;20073;-70
2020/12/11 00:33:54;;;;;;;57.63;23.93;;;2.90;99.90;;;;;;4989605;28;20058;-70
2020/12/11 00:36:22;;;;;;;64.20;23.73;;;3.00;99.90;;;;;;4991515;28;20057;-69
2020/12/11 00:38:49;;;;;;;64.77;24.87;;;3.00;99.90;;;;;;4991721;28;20181;-69
2020/12/11 00:41:16;;;;;;;67.87;22.10;;;3.10;99.90;;;;;;4991254;28;20047;-69
2020/12/11 00:43:43;;;;;;;69.70;24.03;;;2.90;99.90;;;;;;4992290;28;20050;-70
2020/12/11 00:46:10;;;;;;;73.40;25.07;;;3.00;99.90;;;;;;4992114;28;20050;-69
2020/12/11 00:48:38;;;;;;;65.83;23.83;;;2.90;99.90;;;;;;4991138;28;20056;-70
2020/12/11 00:51:04;;;;;;;64.50;23.90;;;2.80;99.90;;;;;;4991397;28;20054;-69
2020/12/11 00:53:31;;;;;;;76.80;26.67;;;2.90;99.90;;;;;;4990861;28;20093;-70
2020/12/11 00:55:57;;;;;;;64.83;24.50;;;2.80;99.90;;;;;;4991828;28;20054;-69
2020/12/11 00:58:24;;;;;;;71.83;24.83;;;2.80;99.90;;;;;;4991479;28;20496;-70
2020/12/11 01:00:52;;;;;;;73.00;25.77;;;2.80;99.90;;;;;;4991366;28;20042;-70
2020/12/11 01:03:18;;;;;;;65.57;24.50;;;2.90;99.90;;;;;;4988781;28;20081;-70
2020/12/11 01:05:45;;;;;;;71.13;25.17;;;2.80;99.90;;;;;;4999430;28;20046;-70
2020/12/11 01:08:12;;;;;;;74.20;25.57;;;2.80;99.90;;;;;;5012906;28;20043;-71
2020/12/11 01:10:38;;;;;;;77.47;26.80;;;2.90;99.90;;;;;;5012744;28;20441;-71
2020/12/11 01:13:05;;;;;;;74.47;26.03;;;2.90;99.90;;;;;;5014033;28;20413;-70
2020/12/11 01:15:31;;;;;;;69.77;24.27;;;2.90;99.90;;;;;;5014165;28;20046;-72
2020/12/11 01:18:00;;;;;;;77.43;26.23;;;2.90;99.90;;;;;;5008530;28;20109;-71
2020/12/11 01:20:26;;;;;;;71.30;25.07;;;2.90;99.90;;;;;;5009633;28;20456;-73
2020/12/11 01:22:53;;;;;;;67.33;25.73;;;2.80;99.90;;;;;;5013069;28;20042;-70
2020/12/11 01:25:20;;;;;;;83.43;28.07;;;2.90;99.90;;;;;;4994392;28;20061;-70
2020/12/11 01:27:46;;;;;;;69.57;25.93;;;2.90;99.90;;;;;;4992984;28;20411;-70
2020/12/11 01:30:13;;;;;;;72.00;26.43;;;2.90;99.90;;;;;;4992639;28;20053;-70
2020/12/11 01:32:40;;;;;;;70.63;25.07;;;2.90;99.90;;;;;;4991972;28;20047;-71
2020/12/11 01:35:08;;;;;;;69.07;26.77;;;2.90;99.90;;;;;;4991958;28;20054;-70
2020/12/11 01:37:36;;;;;;;70.03;24.00;;;2.90;99.90;;;;;;4992256;28;20057;-70
2020/12/11 01:40:02;;;;;;;70.37;25.13;;;2.90;99.90;;;;;;4992005;28;20073;-70
2020/12/11 01:42:29;;;;;;;69.37;24.70;;;2.90;99.90;;;;;;4991690;28;20153;-70
2020/12/11 01:44:56;;;;;;;64.67;26.23;;;2.90;99.90;;;;;;4991061;28;20054;-71
2020/12/11 01:47:23;;;;;;;79.13;27.23;;;3.00;99.90;;;;;;4991331;28;20065;-71
2020/12/11 01:49:51;;;;;;;71.63;25.67;;;3.10;99.90;;;;;;4992150;28;20052;-70
2020/12/11 01:52:20;;;;;;;86.43;26.53;;;3.10;99.90;;;;;;4985501;28;20057;-70
2020/12/11 01:54:48;;;;;;;81.90;27.77;;;3.00;99.90;;;;;;4991823;28;20050;-71
2020/12/11 01:57:21;;;;;;;80.50;25.70;;;3.00;99.90;;;;;;4990951;28;20053;-70
2020/12/11 01:59:52;;;;;;;75.30;25.47;;;3.00;99.90;;;;;;4990456;28;20089;-70
2020/12/11 02:02:20;;;;;;;72.87;25.33;;;3.10;99.90;;;;;;4987834;28;20474;-70
2020/12/11 02:04:48;;;;;;;71.87;26.83;;;3.00;99.90;;;;;;4988781;28;20050;-70
2020/12/11 02:07:15;;;;;;;71.87;25.87;;;3.20;99.90;;;;;;4988719;28;20046;-70
2020/12/11 02:09:43;;;;;;;71.33;25.57;;;3.10;99.90;;;;;;4987090;28;20054;-70
2020/12/11 02:12:10;;;;;;;70.27;25.33;;;3.00;99.90;;;;;;4987479;28;20499;-70
2020/12/11 02:14:37;;;;;;;69.57;24.63;;;3.10;99.90;;;;;;4990075;28;20388;-70
2020/12/11 02:17:04;;;;;;;69.50;24.60;;;3.00;99.90;;;;;;4990874;28;20054;-70
2020/12/11 02:19:33;;;;;;;74.43;26.37;;;3.00;99.90;;;;;;4988116;28;20566;-70
2020/12/11 02:22:01;;;;;;;74.00;24.90;;;3.00;99.90;;;;;;4989660;28;20054;-70
2020/12/11 02:24:28;;;;;;;76.13;24.63;;;3.10;99.90;;;;;;4989662;28;20495;-70
2020/12/11 02:26:56;;;;;;;71.83;26.37;;;2.90;99.90;;;;;;4984165;28;20054;-70
2020/12/11 02:29:23;;;;;;;79.17;26.57;;;2.90;99.90;;;;;;4990814;28;20051;-69
2020/12/11 02:31:50;;;;;;;80.23;27.67;;;2.90;99.90;;;;;;4990167;28;20061;-70
2020/12/11 02:34:17;;;;;;;88.23;29.00;;;2.90;99.90;;;;;;4990524;28;20054;-70
2020/12/11 02:36:44;;;;;;;96.47;29.50;;;2.80;99.90;;;;;;4990821;28;20524;-70
2020/12/11 02:39:12;;;;;;;100.70;30.50;;;3.00;99.90;;;;;;4989680;28;20043;-70
2020/12/11 02:41:38;;;;;;;103.60;31.50;;;2.90;99.90;;;;;;4990782;28;20046;-70
2020/12/11 02:44:05;;;;;;;98.60;30.47;;;2.80;99.90;;;;;;4989925;28;20100;-71
2020/12/11 02:46:32;;;;;;;108.40;30.27;;;2.80;99.90;;;;;;4991050;28;20050;-69
2020/12/11 02:48:59;;;;;;;90.77;29.30;;;2.80;99.90;;;;;;4990791;28;20046;-69
2020/12/11 02:51:25;;;;;;;93.97;29.30;;;2.90;99.90;;;;;;4987070;28;20530;-70
2020/12/11 02:53:52;;;;;;;100.33;28.53;;;2.90;99.90;;;;;;4990198;28;20061;-70
2020/12/11 02:56:20;;;;;;;94.43;30.87;;;2.80;99.90;;;;;;4989886;28;20054;-69
2020/12/11 02:58:50;;;;;;;95.37;30.23;;;2.80;99.90;;;;;;4985711;28;20069;-70
2020/12/11 03:01:17;;;;;;;90.87;27.97;;;2.70;99.90;;;;;;4990298;28;20051;-70
2020/12/11 03:03:44;;;;;;;77.90;26.90;;;2.70;99.90;;;;;;4989892;28;20057;-69
2020/12/11 03:06:11;;;;;;;78.70;26.70;;;2.70;99.90;;;;;;4990254;28;20066;-70
2020/12/11 03:08:37;;;;;;;77.10;26.93;;;2.70;99.90;;;;;;4989649;28;20077;-70
2020/12/11 03:11:04;;;;;;;78.10;25.53;;;2.60;99.90;;;;;;4990081;28;20066;-70
2020/12/11 03:13:32;;;;;;;79.03;27.97;;;2.70;99.90;;;;;;4989943;28;20046;-70
2020/12/11 03:15:58;;;;;;;77.27;26.63;;;2.70;99.90;;;;;;4990182;28;20503;-70
2020/12/11 03:18:25;;;;;;;110.63;31.27;;;2.70;99.90;;;;;;4990426;28;20499;-69
2020/12/11 03:20:52;;;;;;;108.60;29.03;;;2.50;99.90;;;;;;4988994;28;20042;-69
2020/12/11 03:23:18;;;;;;;109.77;31.17;;;2.60;99.90;;;;;;4990294;28;20061;-70
2020/12/11 03:25:45;;;;;;;112.77;34.10;;;2.70;99.90;;;;;;4992041;28;20411;-70
2020/12/11 03:28:12;;;;;;;115.47;32.13;;;2.60;99.90;;;;;;4992407;28;20057;-70
2020/12/11 03:30:39;;;;;;;122.17;33.33;;;2.60;99.90;;;;;;4992071;28;20495;-69
2020/12/11 03:33:06;;;;;;;153.37;36.53;;;2.50;99.90;;;;;;4990398;28;20039;-69
2020/12/11 03:35:36;;;;;;;124.03;33.83;;;2.50;99.90;;;;;;4993403;28;20510;-69
2020/12/11 03:38:03;;;;;;;147.00;38.20;;;2.50;99.90;;;;;;4993734;28;20053;-70
2020/12/11 03:40:30;;;;;;;166.77;39.17;;;2.50;99.90;;;;;;4993565;28;20046;-70
2020/12/11 03:42:56;;;;;;;171.43;39.20;;;2.40;99.90;;;;;;4995924;28;20065;-70
2020/12/11 03:45:23;;;;;;;176.43;39.93;;;2.50;99.90;;;;;;4997102;28;20046;-70
2020/12/11 03:47:51;;;;;;;179.77;44.40;;;2.40;99.90;;;;;;4996129;28;20053;-69
2020/12/11 03:50:17;;;;;;;171.03;38.47;;;2.40;99.90;;;;;;4992271;28;20406;-69
2020/12/11 03:52:44;;;;;;;167.37;36.53;;;2.40;99.90;;;;;;4993369;28;20047;-69
2020/12/11 03:55:11;;;;;;;180.17;41.47;;;2.40;99.90;;;;;;4992539;28;20074;-70
2020/12/11 03:57:37;;;;;;;178.60;38.50;;;2.40;99.90;;;;;;4993509;28;20116;-69
2020/12/11 04:00:05;;;;;;;197.67;41.53;;;2.30;99.90;;;;;;4992556;28;20511;-70
2020/12/11 04:02:34;;;;;;;187.03;42.60;;;2.50;99.90;;;;;;4992629;28;20134;-69
2020/12/11 04:05:02;;;;;;;186.10;42.03;;;2.40;99.90;;;;;;4993039;28;20065;-69
2020/12/11 04:07:29;;;;;;;180.03;40.20;;;2.30;99.90;;;;;;4992442;28;20054;-69
2020/12/11 04:09:55;;;;;;;169.10;38.07;;;2.40;99.90;;;;;;4993152;28;20499;-69
2020/12/11 04:12:22;;;;;;;195.53;46.70;;;2.40;99.90;;;;;;4991799;28;20052;-70
2020/12/11 04:14:49;;;;;;;199.30;41.83;;;2.40;99.90;;;;;;4992869;28;20046;-70
2020/12/11 04:17:16;;;;;;;168.23;38.30;;;2.40;99.90;;;;;;4992405;28;20054;-70
2020/12/11 04:19:42;;;;;;;162.50;38.50;;;2.40;99.90;;;;;;4991341;28;20042;-70
2020/12/11 04:22:10;;;;;;;157.33;35.23;;;2.40;99.90;;;;;;4992346;28;20046;-70
2020/12/11 04:24:36;;;;;;;155.93;36.27;;;2.40;99.90;;;;;;4992004;28;20046;-69
2020/12/11 04:27:03;;;;;;;143.33;37.53;;;2.40;99.90;;;;;;4992486;28;20054;-69
2020/12/11 04:29:30;;;;;;;158.83;37.03;;;2.40;99.90;;;;;;4992477;28;20061;-70
2020/12/11 04:31:58;;;;;;;131.20;35.17;;;2.40;99.90;;;;;;4991773;28;20069;-69
2020/12/11 04:34:25;;;;;;;124.53;32.07;;;2.50;99.90;;;;;;4992495;28;20053;-69
2020/12/11 04:36:53;;;;;;;118.43;33.07;;;2.50;99.90;;;;;;4990471;28;20043;-70
2020/12/11 04:39:21;;;;;;;149.07;34.50;;;2.50;99.90;;;;;;4992342;28;20050;-70
2020/12/11 04:41:50;;;;;;;110.33;32.03;;;2.50;99.90;;;;;;4986158;28;20504;-70
2020/12/11 04:44:16;;;;;;;116.27;30.87;;;2.60;99.90;;;;;;4992151;28;20050;-69
2020/12/11 04:46:46;;;;;;;118.03;30.90;;;2.60;99.90;;;;;;4992073;28;20061;-69
2020/12/11 04:49:13;;;;;;;130.63;32.37;;;2.60;99.90;;;;;;4991177;28;20050;-70
2020/12/11 04:51:47;;;;;;;116.43;31.73;;;2.60;99.90;;;;;;4991837;28;20408;-69
2020/12/11 04:54:18;;;;;;;118.20;29.90;;;2.70;99.90;;;;;;4991236;28;20054;-70
2020/12/11 04:56:48;;;;;;;107.13;28.60;;;2.60;99.90;;;;;;4991562;28;20129;-69
2020/12/11 04:59:16;;;;;;;102.83;27.73;;;2.70;99.90;;;;;;4991734;28;20495;-70
2020/12/11 05:01:43;;;;;;;101.17;26.40;;;2.70;99.90;;;;;;4992194;28;20042;-70
2020/12/11 05:04:10;;;;;;;94.77;26.37;;;2.60;99.90;;;;;;4992093;28;20492;-70
2020/12/11 05:06:36;;;;;;;91.77;25.73;;;2.70;99.90;;;;;;4991999;28;20046;-70
2020/12/11 05:09:11;;;;;;;96.27;26.27;;;2.70;99.90;;;;;;4992425;28;20061;-69
2020/12/11 05:11:38;;;;;;;95.87;25.93;;;2.60;99.90;;;;;;4991397;28;20082;-69
2020/12/11 05:14:17;;;;;;;88.73;26.17;;;2.70;99.90;;;;;;4992926;28;20050;-69
2020/12/11 05:16:54;;;;;;;85.20;22.43;;;2.60;99.90;;;;;;4991319;28;20357;-69
2020/12/11 05:19:20;;;;;;;88.35;26.88;;;2.60;99.90;;;;;;4992367;28;20061;-69
2020/12/11 05:21:47;;;;;;;78.30;22.93;;;2.70;99.90;;;;;;4991496;28;20054;-70
2020/12/11 05:24:14;;;;;;;81.93;23.40;;;2.70;99.90;;;;;;4991422;28;20050;-70
2020/12/11 05:26:40;;;;;;;73.43;19.97;;;2.70;99.90;;;;;;4992101;28;20052;-69
2020/12/11 05:29:08;;;;;;;73.63;21.23;;;2.70;99.90;;;;;;4991376;28;20050;-69
2020/12/11 05:31:34;;;;;;;79.90;21.53;;;2.60;99.90;;;;;;4991486;28;20085;-70
2020/12/11 05:34:09;;;;;;;64.87;20.27;;;2.70;99.90;;;;;;4991478;28;20050;-70
2020/12/11 05:36:45;;;;;;;63.73;18.80;;;2.70;99.90;;;;;;4991370;28;20061;-69
2020/12/11 05:39:11;;;;;;;59.53;19.27;;;2.70;99.90;;;;;;4992111;28;20065;-69
2020/12/11 05:41:38;;;;;;;65.27;20.83;;;2.80;99.90;;;;;;4990442;28;20050;-69
2020/12/11 05:44:24;;;;;;;62.33;18.90;;;2.90;99.90;;;;;;4991721;28;20054;-69
2020/12/11 05:46:51;;;;;;;56.47;18.90;;;2.80;99.90;;;;;;4989890;28;20048;-69
2020/12/11 05:49:26;;;;;;;64.77;16.57;;;2.80;99.90;;;;;;4990557;28;20054;-69
2020/12/11 05:51:57;;;;;;;49.87;15.97;;;2.80;99.90;;;;;;4984910;28;20499;-70
2020/12/11 05:54:24;;;;;;;48.83;16.47;;;2.70;99.90;;;;;;4990946;28;20046;-70
2020/12/11 05:56:52;;;;;;;49.60;18.23;;;2.80;99.90;;;;;;4990537;28;20086;-69
2020/12/11 05:59:24;;;;;;;43.23;14.50;;;2.80;99.90;;;;;;4989975;28;20047;-69
2020/12/11 06:01:55;;;;;;;47.57;16.17;;;2.90;99.90;;;;;;4990454;28;20050;-70
2020/12/11 06:04:25;;;;;;;38.63;13.83;;;2.90;99.90;;;;;;4994544;28;20126;-70
2020/12/11 06:06:59;;;;;;;37.97;14.37;;;2.90;99.90;;;;;;4989049;28;20535;-70
2020/12/11 06:09:36;;;;;;;36.67;13.00;;;2.90;99.90;;;;;;4986881;28;20495;-70
2020/12/11 06:12:05;;;;;;;30.80;12.30;;;2.90;99.90;;;;;;4971969;28;20066;-69
2020/12/11 06:14:51;;;;;;;36.07;13.93;;;2.90;99.90;;;;;;4971938;28;20061;-70
2020/12/11 06:17:21;;;;;;;35.43;13.30;;;2.80;99.90;;;;;;4980191;28;20061;-69
2020/12/11 06:19:50;;;;;;;33.23;13.03;;;2.90;99.90;;;;;;4991558;28;20054;-69
2020/12/11 06:22:16;;;;;;;28.20;11.57;;;2.90;99.90;;;;;;4990287;28;20047;-69
2020/12/11 06:24:43;;;;;;;32.87;12.20;;;2.90;99.90;;;;;;4990991;28;20046;-69
2020/12/11 06:27:10;;;;;;;29.60;12.70;;;2.80;99.90;;;;;;4990794;28;20061;-70
2020/12/11 06:29:40;;;;;;;29.07;11.00;;;2.80;99.90;;;;;;4990395;28;20054;-69
2020/12/11 06:32:08;;;;;;;30.27;12.93;;;2.80;99.90;;;;;;4991375;28;20054;-70
2020/12/11 06:34:35;;;;;;;27.10;10.10;;;2.80;99.90;;;;;;4990402;28;20523;-69
2020/12/11 06:37:02;;;;;;;28.27;11.73;;;2.80;99.90;;;;;;4993961;28;20423;-69
2020/12/11 06:39:43;;;;;;;26.53;11.93;;;2.80;99.90;;;;;;4990378;28;20055;-70
2020/12/11 06:42:11;;;;;;;28.30;11.30;;;2.90;99.90;;;;;;4991353;28;20104;-69
2020/12/11 06:44:38;;;;;;;28.50;11.87;;;2.80;99.90;;;;;;4991075;28;20062;-69
2020/12/11 06:47:06;;;;;;;30.83;12.73;;;2.80;99.90;;;;;;4990160;28;20061;-70
2020/12/11 06:49:33;;;;;;;30.23;13.70;;;2.80;99.90;;;;;;4991510;28;20054;-70
2020/12/11 06:52:13;;;;;;;34.47;13.93;;;2.80;99.90;;;;;;4990142;28;20054;-70
2020/12/11 06:54:52;;;;;;;28.50;11.27;;;2.80;99.90;;;;;;4990917;28;20412;-70
2020/12/11 06:57:45;;;;;;;26.57;12.20;;;2.70;99.90;;;;;;4990122;28;20047;-70
2020/12/11 07:00:33;;;;;;;33.50;14.30;;;2.70;99.90;;;;;;4991769;28;20499;-70
2020/12/11 07:03:22;;;;;;;29.77;12.90;;;2.70;99.90;;;;;;4976122;28;20054;-70
2020/12/11 07:06:12;;;;;;;31.70;12.80;;;2.70;99.90;;;;;;4995093;28;20051;-71
2020/12/11 07:08:39;;;;;;;29.20;12.37;;;2.70;99.90;;;;;;4994757;28;20537;-72
2020/12/11 07:11:09;;;;;;;24.27;11.70;;;2.70;99.90;;;;;;4994831;28;20058;-70
2020/12/11 07:13:36;;;;;;;27.93;12.13;;;2.70;99.90;;;;;;4994494;28;20073;-70
2020/12/11 07:16:04;;;;;;;25.57;12.00;;;2.70;99.90;;;;;;4994386;28;20100;-70
2020/12/11 07:18:31;;;;;;;24.30;11.27;;;2.70;99.90;;;;;;4994515;28;20058;-70
2020/12/11 07:20:59;;;;;;;29.70;12.57;;;2.70;99.90;;;;;;4999788;28;20050;-70
2020/12/11 07:23:27;;;;;;;28.60;13.77;;;2.70;99.90;;;;;;5000784;28;20419;-69
2020/12/11 07:25:56;;;;;;;28.57;13.93;;;2.70;99.90;;;;;;4994531;28;20065;-70
2020/12/11 07:28:23;;;;;;;28.17;11.33;;;2.70;99.90;;;;;;4987511;28;20055;-69
2020/12/11 07:30:50;;;;;;;25.50;11.93;;;2.70;99.90;;;;;;4992877;28;20062;-70
2020/12/11 07:33:18;;;;;;;28.23;13.80;;;2.70;99.90;;;;;;4992241;28;20340;-69
2020/12/11 07:35:48;;;;;;;24.73;11.87;;;2.70;99.90;;;;;;4993833;28;20046;-70
2020/12/11 07:43:26;;;;;;;31.13;14.87;;;2.60;99.90;;;;;;5364532;23;20104;-68
2020/12/11 07:45:53;;;;;;;29.73;13.57;;;2.60;99.90;;;;;;4994870;28;20121;-68
2020/12/11 07:48:20;;;;;;;30.33;12.47;;;2.70;99.90;;;;;;4990415;28;20046;-69
2020/12/11 07:50:46;;;;;;;37.63;15.60;;;2.70;99.90;;;;;;4979502;28;20156;-69
2020/12/11 07:53:14;;;;;;;33.93;15.10;;;2.70;99.90;;;;;;4991244;28;20050;-69
2020/12/11 07:55:40;;;;;;;30.43;14.60;;;2.70;99.90;;;;;;4991205;28;20470;-69
2020/12/11 07:58:07;;;;;;;35.87;16.17;;;2.70;99.90;;;;;;4984815;28;20125;-69
2020/12/11 08:00:38;;;;;;;33.83;15.13;;;2.70;99.90;;;;;;4973820;28;20047;-68
2020/12/11 08:03:07;;;;;;;34.70;14.93;;;2.80;99.90;;;;;;4973251;28;20058;-69
2020/12/11 08:05:35;;;;;;;29.97;15.03;;;2.70;99.90;;;;;;4973309;28;20054;-68
2020/12/11 08:08:02;;;;;;;34.23;15.23;;;2.70;99.90;;;;;;4973209;28;20054;-68
2020/12/11 08:10:37;;;;;;;33.23;13.00;;;2.70;99.90;;;;;;4976435;28;20054;-68
2020/12/11 08:13:12;;;;;;;37.70;15.67;;;2.70;99.90;;;;;;4984206;28;20081;-70
2020/12/11 08:15:41;;;;;;;33.77;15.00;;;2.70;99.90;;;;;;4993535;28;20061;-69
2020/12/11 08:18:13;;;;;;;32.73;13.03;;;2.70;99.90;;;;;;4992207;28;20061;-69
2020/12/11 08:20:47;;;;;;;36.47;15.67;;;2.70;99.90;;;;;;4991116;28;20061;-68
2020/12/11 08:23:40;;;;;;;31.23;13.83;;;2.70;99.90;;;;;;4992303;28;20097;-69
2020/12/11 08:26:16;;;;;;;33.47;13.93;;;2.70;99.90;;;;;;4990769;28;20062;-68
2020/12/11 08:28:45;;;;;;;33.87;14.53;;;2.70;99.90;;;;;;4989992;28;20050;-69
2020/12/11 08:31:24;;;;;;;37.93;16.07;;;2.70;99.90;;;;;;4990653;28;20061;-68
2020/12/11 08:34:01;;;;;;;31.87;14.37;;;2.80;99.90;;;;;;4991731;28;20418;-69
2020/12/11 08:36:42;;;;;;;32.00;15.52;;;2.80;99.90;;;;;;4991547;28;20124;-69
2020/12/11 08:39:18;;;;;;;31.87;14.60;;;2.80;99.90;;;;;;4991279;28;20056;-68
2020/12/11 08:42:12;;;;;;;29.83;12.80;;;2.80;99.90;;;;;;4991478;28;20096;-68
2020/12/11 08:45:13;;;;;;;30.33;14.07;;;2.90;99.90;;;;;;4982298;28;20066;-68
2020/12/11 08:48:04;;;;;;;35.83;15.67;;;2.90;99.90;;;;;;4988729;28;20061;-69
2020/12/11 08:50:39;;;;;;;33.47;14.60;;;2.90;99.90;;;;;;4989402;28;20061;-69
2020/12/11 08:53:09;;;;;;;33.13;15.20;;;2.90;99.90;;;;;;4992352;28;20061;-69
2020/12/11 08:55:37;;;;;;;36.83;16.27;;;3.00;99.90;;;;;;4990974;28;20418;-69
2020/12/11 08:58:07;;;;;;;33.47;14.87;;;2.90;99.90;;;;;;4992061;28;20415;-69
2020/12/11 09:00:34;;;;;;;39.60;17.20;;;3.00;99.90;;;;;;4989586;28;20137;-69
2020/12/11 09:03:01;;;;;;;36.57;17.00;;;3.00;99.90;;;;;;4991435;28;20419;-70
2020/12/11 09:05:28;;;;;;;39.07;18.47;;;3.10;99.90;;;;;;4991316;28;20052;-69
2020/12/11 09:07:55;;;;;;;33.50;15.20;;;3.10;99.90;;;;;;4993953;28;20054;-70
2020/12/11 09:10:21;;;;;;;33.60;15.73;;;3.10;99.90;;;;;;4994336;28;20433;-69
2020/12/11 09:12:50;;;;;;;29.50;14.77;;;3.10;99.90;;;;;;4992448;28;20442;-69
2020/12/11 09:15:21;;;;;;;33.93;16.37;;;3.10;99.90;;;;;;4992791;28;20054;-69
2020/12/11 09:17:48;;;;;;;29.57;14.93;;;3.20;99.90;;;;;;4991176;28;20058;-69
2020/12/11 09:20:15;;;;;;;33.03;14.27;;;3.10;99.90;;;;;;4990303;28;20388;-69
2020/12/11 09:22:42;;;;;;;32.20;15.37;;;3.20;99.90;;;;;;4990503;28;20054;-69
2020/12/11 09:25:09;;;;;;;29.23;13.97;;;3.30;99.90;;;;;;4990663;28;20050;-69
2020/12/11 09:27:39;;;;;;;34.40;15.87;;;3.30;99.90;;;;;;4991247;28;20050;-70
2020/12/11 09:30:15;;;;;;;27.40;13.73;;;3.20;99.90;;;;;;4990760;28;20119;-70
2020/12/11 09:32:51;;;;;;;30.05;13.77;;;3.20;99.90;;;;;;4991510;28;20050;-69
2020/12/11 09:35:20;;;;;;;30.23;14.45;;;3.20;99.90;;;;;;4993023;28;20066;-70
2020/12/11 09:37:50;;;;;;;28.07;13.53;;;3.30;99.90;;;;;;4991802;28;20410;-69
2020/12/11 09:40:18;;;;;;;25.57;13.07;;;3.20;99.90;;;;;;4991450;28;20561;-70
2020/12/11 09:45:32;;;;;;;29.03;14.47;;;3.30;99.90;;;;;;4991387;28;20134;-70
2020/12/11 09:48:15;;;;;;;27.57;13.20;;;3.40;99.90;;;;;;4990624;28;20165;-70
2020/12/11 09:56:10;;;;;;;28.33;14.30;;;3.40;99.90;;;;;;4988033;28;20121;-70
2020/12/11 09:58:40;;;;;;;32.10;14.80;;;3.60;99.90;;;;;;4988694;28;20539;-69
2020/12/11 10:01:08;;;;;;;30.13;14.93;;;3.60;99.90;;;;;;4988268;28;20430;-71
2020/12/11 10:03:38;;;;;;;30.10;14.43;;;3.60;99.90;;;;;;4986250;28;20177;-68
2020/12/11 10:06:08;;;;;;;29.63;14.00;;;3.60;99.90;;;;;;4988921;28;20158;-67
2020/12/11 10:08:35;;;;;;;28.43;13.90;;;3.60;99.90;;;;;;4988227;28;20064;-67
2020/12/11 10:11:02;;;;;;;27.90;13.83;;;3.60;99.90;;;;;;4987537;28;20058;-68
2020/12/11 10:13:29;;;;;;;30.20;14.77;;;3.70;99.90;;;;;;4985862;28;20089;-68
2020/12/11 10:15:57;;;;;;;31.73;16.23;;;3.70;99.90;;;;;;4988880;28;20086;-70
2020/12/11 10:18:24;;;;;;;29.40;14.30;;;3.80;99.90;;;;;;4990084;28;20462;-69
2020/12/11 10:20:50;;;;;;;33.30;15.20;;;3.80;99.90;;;;;;4988617;28;20046;-68
2020/12/11 10:23:18;;;;;;;32.33;15.47;;;3.80;99.90;;;;;;4990788;28;20400;-69
2020/12/11 10:25:44;;;;;;;32.73;16.10;;;3.80;99.90;;;;;;4990457;28;20058;-69
2020/12/11 10:28:12;;;;;;;31.83;15.17;;;3.70;99.90;;;;;;4988964;28;20046;-69
2020/12/11 10:30:39;;;;;;;32.00;14.47;;;3.80;99.90;;;;;;4989514;28;20065;-68
2020/12/11 10:33:05;;;;;;;31.93;14.83;;;3.80;99.90;;;;;;4988781;28;20414;-69
2020/12/11 10:35:33;;;;;;;32.33;14.80;;;3.70;99.90;;;;;;4992731;28;20062;-69
2020/12/11 10:37:59;;;;;;;31.37;15.37;;;3.80;99.90;;;;;;4993156;28;20054;-69
2020/12/11 10:40:28;;;;;;;38.97;15.70;;;3.80;99.90;;;;;;4991715;28;20058;-69
2020/12/11 10:42:55;;;;;;;32.17;15.77;;;3.80;99.90;;;;;;4967299;28;731267;-69
2020/12/11 10:45:21;;;;;;;30.47;14.90;;;3.80;99.90;;;;;;4980747;28;20043;-68
2020/12/11 10:47:48;;;;;;;30.17;14.80;;;3.90;99.90;;;;;;4975127;28;20055;-69
2020/12/11 10:50:15;;;;;;;29.63;14.97;;;4.00;99.90;;;;;;4973826;28;20055;-68
2020/12/11 10:52:41;;;;;;;33.03;14.97;;;4.10;99.90;;;;;;4974983;28;20085;-69
2020/12/11 10:55:08;;;;;;;31.57;15.73;;;4.00;99.90;;;;;;4974673;28;20058;-68
2020/12/11 10:57:39;;;;;;;34.63;15.93;;;4.00;99.90;;;;;;4975117;28;20054;-69
2020/12/11 11:00:12;;;;;;;29.90;14.47;;;3.90;99.90;;;;;;4975778;28;20055;-70
2020/12/11 11:02:38;;;;;;;30.40;15.27;;;4.00;99.90;;;;;;4974585;28;20055;-70
2020/12/11 11:05:05;;;;;;;35.83;16.63;;;4.00;99.90;;;;;;4975229;28;20127;-70
2020/12/11 11:07:32;;;;;;;29.90;15.27;;;3.90;99.90;;;;;;4974126;28;20451;-70
2020/12/11 11:10:13;;;;;;;31.60;15.73;;;3.80;99.90;;;;;;4975100;28;20411;-70
2020/12/11 11:12:44;;;;;;;32.27;14.87;;;3.90;99.90;;;;;;4980526;28;20050;-70
2020/12/11 11:15:41;;;;;;;30.60;14.23;;;3.80;99.90;;;;;;4995772;28;20060;-70
2020/12/11 11:26:41;;;;;;;34.70;16.43;;;3.70;99.90;;;;;;4995069;28;20061;-71
2020/12/11 11:29:10;;;;;;;36.77;16.97;;;3.60;99.90;;;;;;4997901;28;20122;-70
2020/12/11 11:31:39;;;;;;;33.90;15.70;;;3.60;99.90;;;;;;4998039;28;20500;-70
2020/12/11 11:34:06;;;;;;;33.20;16.50;;;3.70;99.90;;;;;;4994124;28;20058;-70
2020/12/11 11:36:33;;;;;;;34.13;15.80;;;3.70;99.90;;;;;;4992750;28;20050;-70
2020/12/11 11:39:00;;;;;;;43.97;16.77;;;3.80;99.90;;;;;;4993327;28;20109;-70
2020/12/11 11:41:46;;;;;;;35.03;16.80;;;3.70;99.90;;;;;;4992367;28;20054;-70
2020/12/11 11:44:36;;;;;;;34.47;16.43;;;3.80;99.90;;;;;;4993300;28;20410;-71
2020/12/11 11:47:03;;;;;;;35.23;17.77;;;3.70;99.90;;;;;;4993114;28;20085;-70
2020/12/11 11:49:34;;;;;;;40.97;17.60;;;3.70;99.90;;;;;;4992988;28;20059;-70
2020/12/11 11:52:11;;;;;;;32.23;15.90;;;3.80;99.90;;;;;;4994161;28;20058;-70
2020/12/11 11:54:38;;;;;;;37.10;16.80;;;3.80;99.90;;;;;;4993727;28;20064;-70
2020/12/11 11:57:05;;;;;;;35.57;16.43;;;3.90;99.90;;;;;;4993917;28;20515;-70
2020/12/11 11:59:32;;;;;;;34.37;16.40;;;3.90;99.90;;;;;;4993156;28;20140;-70
2020/12/11 12:01:59;;;;;;;34.43;15.77;;;4.00;99.90;;;;;;4986605;28;20066;-70
2020/12/11 12:04:26;;;;;;;31.67;15.73;;;4.00;99.90;;;;;;4977708;28;20053;-69
2020/12/11 12:06:53;;;;;;;35.57;17.27;;;4.00;99.90;;;;;;4981237;28;20085;-70
2020/12/11 12:09:19;;;;;;;36.37;17.03;;;3.90;99.90;;;;;;4986297;28;20050;-70
2020/12/11 12:11:46;;;;;;;34.63;15.97;;;3.90;99.90;;;;;;4985535;28;20046;-70
2020/12/11 12:14:13;;;;;;;35.50;16.53;;;4.00;99.90;;;;;;4986258;28;20061;-69
2020/12/11 12:16:43;;;;;;;38.13;17.23;;;4.00;99.90;;;;;;4982708;28;20438;-69
2020/12/11 12:19:13;;;;;;;36.53;15.43;;;3.90;99.90;;;;;;4981255;28;20081;-70
2020/12/11 12:22:05;;;;;;;36.00;16.07;;;3.90;99.90;;;;;;4981013;28;20078;-70
2020/12/11 12:27:34;;;;;;;33.00;15.53;;;3.80;99.90;;;;;;4981981;28;20054;-70
2020/12/11 12:30:01;;;;;;;34.17;16.50;;;3.80;99.90;;;;;;4983329;28;20054;-70
2020/12/11 12:32:33;;;;;;;37.13;15.57;;;3.80;99.90;;;;;;4985747;28;20058;-70
2020/12/11 12:35:01;;;;;;;33.90;15.87;;;3.90;99.90;;;;;;4986630;28;20070;-70
2020/12/11 12:37:36;;;;;;;38.27;17.10;;;3.90;99.90;;;;;;4984553;28;20045;-69
2020/12/11 12:43:04;;;;;;;40.60;17.27;;;3.90;99.90;;;;;;4982486;28;20588;-69
2020/12/11 12:45:31;;;;;;;42.60;17.43;;;3.90;99.90;;;;;;4981683;28;20511;-70
2020/12/11 12:47:59;;;;;;;37.47;17.37;;;3.90;99.90;;;;;;4982093;28;20058;-70
2020/12/11 12:50:25;;;;;;;38.67;18.30;;;3.80;99.90;;;;;;4983556;28;20062;-70
2020/12/11 12:52:52;;;;;;;38.03;17.40;;;3.90;99.90;;;;;;4980062;28;20058;-69
2020/12/11 12:55:24;;;;;;;34.33;16.63;;;4.00;99.90;;;;;;4984089;28;20050;-69
2020/12/11 12:57:58;;;;;;;38.23;16.60;;;4.00;99.90;;;;;;4981313;28;20057;-70
2020/12/11 13:00:28;;;;;;;34.63;15.17;;;4.00;99.90;;;;;;4981078;28;20054;-70
2020/12/11 13:05:43;;;;;;;36.40;16.80;;;3.90;99.90;;;;;;4991968;28;20899;-70
2020/12/11 13:08:10;;;;;;;38.33;17.13;;;3.90;99.90;;;;;;4984188;28;20056;-68
2020/12/11 13:10:37;;;;;;;38.47;16.17;;;4.00;99.90;;;;;;4975748;28;20047;-68
2020/12/11 13:13:08;;;;;;;33.47;16.13;;;4.00;99.90;;;;;;4985779;28;20046;-68
2020/12/11 13:15:36;;;;;;;31.60;15.20;;;4.00;99.90;;;;;;4984314;28;20058;-68
2020/12/11 13:18:03;;;;;;;31.57;15.60;;;3.90;99.90;;;;;;4988472;28;20081;-68